ADDS METAR Data INFO
IDs: Format: Raw Decoded Include TAF

Data at: 2345 UTC 15 Dec 2017

KASJ 152325Z AUTO 00000KT 10SM CLR 03/M03 A2999 RMK AO2 T00311028
KASJ 152305Z AUTO 00000KT 10SM CLR 03/M03 A2998 RMK AO2 T00331027
KASJ 152245Z AUTO 00000KT 10SM CLR 04/M02 A2997 RMK AO2 T00351025
KASJ 152225Z AUTO 00000KT 10SM CLR 04/M02 A2996 RMK AO2 T00361025
KASJ 152205Z AUTO 00000KT 10SM CLR 04/M02 A2996 RMK AO2 T00401022
KASJ 152145Z AUTO 00000KT 10SM CLR 04/M02 A2994 RMK AO2 T00431022
KASJ 152125Z AUTO 27003KT 10SM CLR 05/M02 A2994 RMK AO2 T00461021
KASJ 152105Z AUTO 32004KT 10SM CLR 06/M01 A2993 RMK AO2 T00551011
KASJ 152045Z AUTO 32004KT 10SM CLR 06/M01 A2992 RMK AO2 T00581010
KASJ 152025Z AUTO 31003KT 10SM CLR 06/00 A2992 RMK AO2 T00641005
KASJ 152005Z AUTO 31003KT 10SM CLR 07/00 A2991 RMK AO2 T00661003
KASJ 151945Z AUTO 00000KT 10SM CLR 07/00 A2990 RMK AO2 T00710000
KASJ 151925Z AUTO 29004KT 10SM CLR 08/00 A2989 RMK AO2 T00750000
KASJ 151905Z AUTO 28003KT 10SM CLR 08/00 A2990 RMK AO2 T00760001
KASJ 151845Z AUTO 00000KT 10SM CLR 08/00 A2988 RMK AO2 T00820004
KASJ 151825Z AUTO 00000KT 10SM CLR 08/01 A2988 RMK AO2 T00840011
KASJ 151805Z AUTO 00000KT 10SM CLR 08/01 A2990 RMK AO2 T00810011
KASJ 151745Z AUTO 00000KT 10SM CLR 08/01 A2991 RMK AO2 T00790012
KASJ 151725Z AUTO 00000KT 10SM CLR 07/01 A2991 RMK AO2 T00720008
KASJ 151705Z AUTO 00000KT 10SM CLR 07/01 A2992 RMK AO2 T00680006
KASJ 151645Z AUTO 00000KT 10SM CLR 06/00 A2994 RMK AO2 T00640002
KASJ 151625Z AUTO 00000KT 10SM CLR 05/00 A2995 RMK AO2 T00540000
KASJ 151605Z AUTO 00000KT 10SM CLR 05/00 A2996 RMK AO2 T00481004
KASJ 151545Z AUTO 00000KT 10SM CLR 04/M01 A2998 RMK AO2 T00431008
KASJ 151525Z AUTO 35003KT 10SM CLR 04/M01 A3000 RMK AO2 T00361012
KASJ 151505Z AUTO 00000KT 10SM CLR 03/M01 A2999 RMK AO2 T00301015
KASJ 151445Z AUTO 00000KT 10SM CLR 02/M02 A3000 RMK AO2 T00241021
KASJ 151425Z AUTO 02005KT 10SM CLR 02/M03 A2999 RMK AO2 T00181030
KASJ 151405Z AUTO 04004KT 10SM CLR 01/M04 A2999 RMK AO2 T00121036
KASJ 151345Z AUTO 01004KT 10SM CLR 01/M04 A3000 RMK AO2 T00071044
KASJ 151325Z AUTO 03004KT 10SM CLR 00/M05 A3000 RMK AO2 T00031048
KASJ 151305Z AUTO 02006KT 10SM CLR 00/M05 A3001 RMK AO2 T00021051
KASJ 151245Z AUTO 00000KT 10SM CLR 00/M05 A3001 RMK AO2 T00001055
KASJ 151225Z AUTO 02007KT 10SM CLR 00/M06 A3002 RMK AO2 T00001056
KASJ 151205Z AUTO 03007KT 10SM CLR 00/M06 A3001 RMK AO2 T00001056
KASJ 151145Z AUTO 02006KT 10SM CLR 00/M05 A3002 RMK AO2 T10011054
KASJ 151125Z AUTO 02004KT 10SM CLR 00/M05 A3004 RMK AO2 T00001053
KASJ 151105Z AUTO 01005KT 10SM CLR 00/M05 A3004 RMK AO2 T00001052
KASJ 151045Z AUTO 01003KT 10SM CLR 00/M05 A3003 RMK AO2 T10021048
KASJ 151025Z AUTO 01005KT 10SM CLR 00/M05 A3004 RMK AO2 T10021046
KASJ 151005Z AUTO 01004KT 10SM CLR 00/M05 A3004 RMK AO2 T10041046
KASJ 150945Z AUTO 02003KT 10SM CLR M01/M05 A3004 RMK AO2 T10071048
KASJ 150925Z AUTO 01003KT 10SM CLR M01/M05 A3005 RMK AO2 T10081051
KASJ 150905Z AUTO 00000KT 10SM CLR M01/M05 A3006 RMK AO2 T10101052
KASJ 150845Z AUTO 01003KT 10SM CLR 00/M05 A3006 RMK AO2 T10051052
KASJ 150825Z AUTO 02004KT 10SM CLR 00/M05 A3005 RMK AO2 T00001052
KASJ 150805Z AUTO 02004KT 10SM CLR 00/M05 A3005 RMK AO2 T00001050
KASJ 150745Z AUTO 02005KT 10SM CLR 00/M05 A3006 RMK AO2 T00011050
KASJ 150725Z AUTO 02005KT 10SM CLR 00/M05 A3006 RMK AO2 T00031047
KASJ 150705Z AUTO 02005KT 10SM CLR 00/M04 A3006 RMK AO2 T00021044
KASJ 150645Z AUTO 01004KT 10SM CLR 01/M04 A3006 RMK AO2 T00061043
KASJ 150625Z AUTO 02004KT 10SM CLR 01/M04 A3006 RMK AO2 T00071040
KASJ 150605Z AUTO 02006KT 10SM CLR 01/M04 A3006 RMK AO2 T00121040
KASJ 150545Z AUTO 02004KT 10SM CLR 01/M04 A3006 RMK AO2 T00121036
KASJ 150525Z AUTO 02004KT 10SM CLR 02/M03 A3006 RMK AO2 T00151032
KASJ 150505Z AUTO 02004KT 10SM CLR 02/M02 A3006 RMK AO2 T00161025
KASJ 150445Z AUTO 02003KT 10SM CLR 02/M02 A3007 RMK AO2 T00161022
KASJ 150425Z AUTO 01003KT 10SM CLR 02/M02 A3007 RMK AO2 T00191022
KASJ 150405Z AUTO 02004KT 10SM CLR 03/M02 A3006 RMK AO2 T00251021
KASJ 150345Z AUTO 03003KT 10SM CLR 03/M02 A3006 RMK AO2 T00261021
KASJ 150325Z AUTO 00000KT 10SM CLR 03/M02 A3007 RMK AO2 T00311021
KASJ 150305Z AUTO 03003KT 10SM CLR 03/M02 A3007 RMK AO2 T00331020
KASJ 150245Z AUTO 03004KT 10SM CLR 04/M02 A3006 RMK AO2 T00351018
KASJ 150225Z AUTO 02004KT 10SM CLR 04/M02 A3006 RMK AO2 T00401017
KASJ 150205Z AUTO 03004KT 10SM CLR 04/M02 A3005 RMK AO2 T00421016
KASJ 150145Z AUTO 03003KT 10SM CLR 05/M02 A3004 RMK AO2 T00481016
KASJ 150125Z AUTO 05004KT 10SM CLR 05/M02 A3003 RMK AO2 T00531019
KASJ 150105Z AUTO 00000KT 10SM CLR 06/M02 A3002 RMK AO2 T00561017
KASJ 150045Z AUTO 04003KT 10SM CLR 06/M02 A3001 RMK AO2 T00611017
KASJ 150025Z AUTO 00000KT 10SM CLR 07/M02 A3000 RMK AO2 T00651017
KASJ 150005Z AUTO 03004KT 10SM CLR 07/M01 A2999 RMK AO2 T00671015
KASJ 142345Z AUTO 02003KT 10SM CLR 07/M01 A2998 RMK AO2 T00651012
KASJ 142325Z AUTO 36006KT 10SM CLR 07/M01 A2997 RMK AO2 T00711008
KASJ 142305Z AUTO 00000KT 10SM CLR 07/00 A2996 RMK AO2 T00701002
KASJ 142245Z AUTO 00000KT 10SM CLR 07/00 A2994 RMK AO2 T00660000
KASJ 142225Z AUTO 00000KT 10SM CLR 08/M01 A2993 RMK AO2 T00831006
KASJ 142205Z AUTO 00000KT 10SM CLR 08/M01 A2992 RMK AO2 T00831007
KASJ 142145Z AUTO 00000KT 10SM CLR 10/M01 A2991 RMK AO2 T00981014
KASJ 142125Z AUTO 00000KT 10SM CLR 11/M02 A2989 RMK AO2 T01061021
KASJ 142105Z AUTO 00000KT 10SM CLR 11/M02 A2989 RMK AO2 T01101025
KASJ 142045Z AUTO 00000KT 10SM CLR 11/M03 A2988 RMK AO2 T01111030
KASJ 142025Z AUTO 33003KT 10SM CLR 12/M03 A2987 RMK AO2 T01151031
KASJ 142005Z AUTO 33004KT 10SM CLR 12/M03 A2986 RMK AO2 T01181029
KASJ 141945Z AUTO 30003KT 10SM CLR 12/M02 A2986 RMK AO2 T01221025
KASJ 141925Z AUTO 30003KT 10SM CLR 12/M03 A2985 RMK AO2 T01211031
KASJ 141905Z AUTO 00000KT 10SM CLR 12/M03 A2984 RMK AO2 T01201031
KASJ 141845Z AUTO 31004KT 10SM CLR 13/M02 A2984 RMK AO2 T01271022
KASJ 141825Z AUTO 00000KT 10SM CLR 12/M03 A2984 RMK AO2 T01201028
KASJ 141805Z AUTO 30005KT 10SM CLR 12/M03 A2983 RMK AO2 T01191028
KASJ 141745Z AUTO 31004KT 10SM CLR 12/M03 A2983 RMK AO2 T01201028
KASJ 141725Z AUTO 26005KT 10SM CLR 12/M03 A2983 RMK AO2 T01211029
KASJ 141705Z AUTO 28004KT 10SM CLR 11/M03 A2983 RMK AO2 T01141033
KASJ 141645Z AUTO 29004KT 10SM CLR 11/M03 A2983 RMK AO2 T01141032
KASJ 141625Z AUTO 00000KT 10SM CLR 11/M03 A2983 RMK AO2 T01121030
KASJ 141605Z AUTO 30004KT 10SM CLR 11/M03 A2983 RMK AO2 T01091027
KASJ 141545Z AUTO 23003KT 10SM CLR 10/M03 A2983 RMK AO2 T00961034
KASJ 141525Z AUTO 00000KT 10SM CLR 09/M04 A2983 RMK AO2 T00881036
KASJ 141505Z AUTO 00000KT 10SM CLR 08/M03 A2983 RMK AO2 T00791035
KASJ 141445Z AUTO 00000KT 10SM CLR 07/M04 A2982 RMK AO2 T00691036
KASJ 141425Z AUTO 00000KT 10SM CLR 06/M04 A2980 RMK AO2 T00591038
KASJ 141405Z AUTO 00000KT 10SM CLR 05/M04 A2980 RMK AO2 T00461040
KASJ 141345Z AUTO 00000KT 10SM CLR 03/M04 A2979 RMK AO2 T00331043
KASJ 141325Z AUTO 00000KT 10SM CLR 02/M04 A2978 RMK AO2 T00211043
KASJ 141305Z AUTO 00000KT 10SM CLR 01/M04 A2978 RMK AO2 T00061044
KASJ 141245Z AUTO 00000KT 10SM CLR 00/M05 A2977 RMK AO2 T00011050
KASJ 141225Z AUTO 00000KT 10SM CLR 00/M05 A2976 RMK AO2 T10011051
KASJ 141205Z AUTO 00000KT 10SM CLR 00/M05 A2975 RMK AO2 T00011050